createdAt,value
2023-05-22T04:36:35.427Z,3.80
2023-05-22T04:39:02.363Z,3.10
2023-05-22T04:41:33.618Z,3.60
2023-05-22T04:44:03.693Z,3.50
2023-05-22T04:46:34.116Z,3.50
2023-05-22T05:47:48.036Z,3.30
2023-05-22T06:38:05.596Z,2.40
2023-05-22T06:40:37.629Z,2.50
2023-05-22T06:47:00.645Z,2.20
2023-05-22T06:49:34.625Z,2.40
2023-05-22T06:53:18.629Z,2.40
2023-05-22T07:30:56.252Z,2.40
2023-05-22T07:33:26.241Z,2.30
2023-05-22T07:35:52.896Z,1.90
2023-05-22T07:38:20.401Z,1.90
2023-05-22T07:40:54.788Z,2.40
2023-05-22T07:43:24.775Z,2.50
2023-05-22T07:45:53.358Z,2.00
2023-05-22T07:48:26.892Z,2.00
2023-05-22T07:53:24.542Z,1.90
2023-05-22T07:55:51.345Z,1.90
2023-05-22T07:58:23.366Z,1.90
2023-05-22T08:00:55.384Z,1.50
2023-05-22T08:03:23.989Z,1.50
2023-05-22T08:05:53.662Z,1.90
2023-05-22T08:08:20.537Z,2.00
2023-05-22T08:11:03.315Z,1.90
2023-05-22T08:13:33.400Z,1.90
2023-05-22T08:16:02.421Z,1.70
2023-05-22T08:18:29.629Z,1.80
2023-05-22T08:20:57.027Z,1.60
2023-05-22T08:23:24.299Z,1.30
2023-05-22T08:25:53.489Z,1.90
2023-05-22T08:28:27.704Z,1.50
2023-05-22T08:30:54.575Z,1.50
2023-05-22T08:33:23.913Z,1.60
2023-05-22T08:35:50.537Z,1.80
2023-05-22T08:38:17.421Z,1.50
2023-05-22T08:40:51.055Z,1.80
2023-05-22T08:43:21.104Z,1.30
2023-05-22T08:46:03.266Z,1.50
2023-05-22T08:48:33.777Z,1.80
2023-05-22T08:51:05.008Z,1.80
2023-05-22T08:53:36.601Z,1.40
2023-05-22T08:56:06.094Z,2.10
2023-05-22T08:58:40.315Z,1.50
2023-05-22T09:01:08.097Z,1.60
2023-05-22T09:03:37.959Z,1.40
2023-05-22T09:06:08.757Z,1.40
2023-05-22T09:08:38.492Z,1.30
2023-05-22T09:11:10.253Z,1.30
2023-05-22T09:13:39.850Z,1.40
2023-05-22T09:16:12.093Z,1.40
2023-05-22T09:18:40.043Z,1.20
2023-05-22T09:21:28.964Z,1.70
2023-05-22T09:24:00.679Z,1.50
2023-05-22T09:26:28.701Z,1.20
2023-05-22T09:28:56.416Z,1.40
2023-05-22T09:31:22.975Z,1.60
2023-05-22T09:33:49.759Z,1.40
2023-05-22T09:36:16.570Z,1.50
2023-05-22T09:38:45.623Z,1.50
2023-05-22T09:41:12.144Z,1.50
2023-05-22T09:43:38.698Z,1.50
2023-05-22T09:46:05.385Z,1.60
2023-05-22T09:48:37.726Z,1.70
2023-05-22T09:53:35.260Z,1.70
2023-05-22T09:56:08.443Z,1.40
2023-05-22T09:58:42.621Z,1.70
2023-05-22T10:01:13.106Z,1.50
2023-05-22T10:03:42.539Z,1.60
2023-05-22T10:06:11.581Z,1.70
2023-05-22T10:08:43.833Z,1.80
2023-05-22T10:11:10.676Z,1.80
2023-05-22T10:13:39.561Z,1.70
2023-05-22T10:16:07.033Z,2.00
2023-05-22T10:18:37.470Z,1.40
2023-05-22T10:21:08.864Z,2.00
2023-05-22T10:23:35.591Z,1.50
2023-05-22T10:26:02.241Z,1.50
2023-05-22T10:28:36.166Z,1.40
2023-05-22T10:31:17.850Z,1.40
2023-05-22T10:34:33.630Z,1.50
2023-05-22T10:37:31.069Z,1.70
2023-05-22T10:40:12.466Z,1.30
2023-05-22T10:42:41.281Z,1.70
2023-05-22T10:45:08.504Z,1.40
2023-05-22T10:47:35.911Z,1.90
2023-05-22T10:50:12.498Z,1.60
2023-05-22T10:52:41.527Z,1.50
2023-05-22T10:55:13.706Z,1.90
2023-05-22T10:57:41.342Z,1.40
2023-05-22T11:00:15.659Z,1.70
2023-05-22T11:02:44.997Z,1.90
2023-05-22T11:05:20.368Z,1.60
2023-05-22T11:07:50.566Z,1.50
2023-05-22T11:10:47.938Z,1.40
2023-05-22T11:13:17.114Z,2.00
2023-05-22T11:15:46.138Z,1.80
2023-05-22T11:18:17.606Z,1.90
2023-05-22T11:20:48.981Z,2.10
2023-05-22T11:23:20.389Z,1.80
2023-05-22T11:25:47.009Z,1.90
2023-05-22T11:28:13.481Z,1.80
2023-05-22T11:30:45.088Z,1.80
2023-05-22T11:33:20.205Z,1.80
2023-05-22T11:35:52.667Z,2.10
2023-05-22T11:38:24.517Z,2.00
2023-05-22T11:40:51.477Z,1.70
2023-05-22T11:43:33.675Z,1.70
2023-05-22T11:46:15.735Z,1.60
2023-05-22T11:48:47.915Z,2.00
2023-05-22T11:51:23.586Z,1.70
2023-05-22T11:53:57.245Z,1.80
2023-05-22T11:56:53.266Z,2.10
2023-05-22T11:59:22.225Z,2.00
2023-05-22T12:01:49.980Z,1.50
2023-05-22T12:04:16.742Z,1.90
2023-05-22T14:53:16.404Z,2.00
2023-05-22T14:55:45.139Z,1.70
2023-05-22T14:58:14.134Z,1.60
2023-05-22T15:00:43.774Z,1.90
2023-05-22T15:03:16.069Z,1.40
2023-05-22T15:05:42.660Z,1.70
2023-05-22T15:08:11.404Z,2.00
2023-05-22T15:10:40.569Z,1.60
2023-05-22T15:13:10.262Z,1.70
2023-05-22T15:15:37.740Z,1.50
2023-05-22T15:18:06.513Z,1.80
2023-05-22T15:20:35.454Z,2.20
2023-05-22T15:23:02.830Z,2.50
2023-05-22T15:25:33.071Z,1.80
2023-05-22T15:28:05.647Z,1.70
2023-05-22T15:30:35.851Z,1.90
2023-05-22T15:33:05.224Z,2.10
2023-05-22T15:35:34.707Z,1.90
2023-05-22T15:38:02.482Z,2.30
2023-05-22T15:40:29.374Z,1.70
2023-05-22T15:42:56.092Z,1.70
2023-05-22T15:45:22.740Z,2.30
2023-05-22T15:47:52.576Z,2.00
2023-05-22T15:50:19.003Z,1.80
2023-05-22T15:52:45.551Z,2.10
2023-05-22T15:55:14.513Z,1.90
2023-05-22T15:57:43.261Z,1.80
2023-05-22T16:00:18.372Z,1.60
2023-05-22T16:02:48.314Z,1.80
2023-05-22T16:05:15.353Z,2.20
2023-05-22T16:07:41.902Z,1.60
2023-05-22T16:10:11.463Z,1.80
2023-05-22T16:12:40.812Z,1.60
2023-05-22T16:15:11.005Z,2.40
2023-05-22T16:17:38.492Z,2.00
2023-05-22T16:20:06.273Z,2.00
2023-05-22T16:22:47.344Z,1.90
2023-05-22T16:27:50.029Z,1.70
2023-05-22T16:30:19.723Z,2.10
2023-05-22T16:32:50.946Z,1.80
2023-05-22T16:35:21.514Z,1.80
2023-05-22T16:37:48.054Z,2.10
2023-05-22T16:40:19.984Z,1.90
2023-05-22T16:42:49.320Z,1.90
2023-05-22T16:45:18.219Z,1.80
2023-05-22T16:47:44.717Z,2.50
2023-05-22T16:50:11.358Z,2.60
2023-05-22T16:52:38.028Z,2.80
2023-05-22T16:55:05.090Z,1.70
2023-05-22T16:57:31.587Z,2.40
2023-05-22T16:59:58.275Z,2.50
2023-05-22T17:02:25.154Z,2.10
2023-05-22T17:04:51.770Z,2.20
2023-05-22T17:07:18.305Z,2.10
2023-05-22T17:09:45.138Z,2.30
2023-05-22T17:12:15.872Z,2.10
2023-05-22T17:14:42.529Z,2.00
2023-05-22T17:17:08.992Z,2.20
2023-05-22T17:19:36.794Z,2.70
2023-05-22T17:22:08.395Z,2.40
2023-05-22T17:24:38.731Z,2.40
2023-05-22T17:27:06.003Z,2.20
2023-05-22T17:29:34.872Z,2.10
2023-05-22T17:32:04.144Z,1.90
2023-05-22T17:34:31.258Z,2.60
2023-05-22T17:36:58.768Z,2.40
2023-05-22T17:39:25.852Z,2.30
2023-05-22T17:41:52.509Z,2.30
2023-05-22T17:44:19.182Z,1.90
2023-05-22T17:46:48.880Z,2.00
2023-05-22T17:49:20.341Z,2.30
2023-05-22T17:51:49.641Z,2.10
2023-05-22T17:54:16.190Z,2.30
2023-05-22T17:56:45.478Z,2.20
2023-05-22T17:59:12.385Z,2.60
2023-05-22T18:01:43.481Z,2.60
2023-05-22T18:04:11.623Z,2.90
2023-05-22T18:06:39.151Z,2.50
2023-05-22T18:09:07.501Z,2.70
2023-05-22T18:11:35.705Z,3.30
2023-05-22T18:14:02.563Z,2.80
2023-05-22T18:16:32.038Z,2.90
2023-05-22T18:19:00.246Z,3.00
2023-05-22T18:21:33.844Z,2.90
2023-05-22T18:24:03.317Z,2.80
2023-05-22T18:26:30.303Z,2.40
2023-05-22T18:28:57.533Z,2.70
2023-05-22T18:31:24.064Z,3.00
2023-05-22T18:34:02.942Z,3.00
2023-05-22T18:36:29.582Z,2.60
2023-05-22T18:39:01.467Z,3.00
2023-05-22T18:41:28.353Z,2.80
2023-05-22T18:44:08.266Z,2.60
2023-05-22T18:46:36.220Z,2.50
2023-05-22T18:49:03.434Z,3.30
2023-05-22T18:51:31.081Z,3.50
2023-05-22T18:54:01.565Z,3.10
2023-05-22T18:56:30.911Z,3.20
2023-05-22T18:58:58.946Z,3.40
2023-05-22T19:01:35.556Z,3.20
2023-05-22T19:04:16.002Z,3.50
2023-05-22T19:06:45.688Z,3.30
2023-05-22T19:09:13.728Z,4.10
2023-05-22T19:11:40.915Z,4.20
2023-05-22T19:14:51.936Z,3.90
2023-05-22T19:17:21.101Z,3.90
2023-05-22T19:19:48.329Z,3.60
2023-05-22T19:22:21.449Z,3.90
2023-05-22T19:27:20.592Z,3.40
2023-05-22T19:29:48.203Z,3.40
2023-05-22T19:32:24.217Z,3.20
2023-05-22T19:41:27.048Z,3.40
2023-05-22T19:43:56.888Z,3.80
2023-05-22T19:53:35.716Z,3.40
2023-05-22T19:56:05.126Z,3.70
2023-05-22T19:58:35.348Z,4.30
2023-05-22T20:01:04.681Z,4.60
2023-05-22T20:03:33.191Z,4.10
2023-05-22T20:06:09.181Z,4.10
2023-05-22T20:30:46.247Z,3.70
2023-05-22T20:33:13.769Z,3.80
2023-05-22T20:35:41.443Z,3.60
2023-05-22T20:38:09.373Z,3.60
2023-05-22T20:40:37.116Z,3.60
2023-05-22T20:43:06.257Z,3.80
2023-05-22T20:45:33.497Z,3.80
2023-05-22T20:58:06.076Z,3.50
2023-05-22T21:00:34.292Z,4.00
2023-05-22T21:03:01.000Z,4.40
2023-05-22T21:05:27.771Z,4.30
2023-05-22T21:07:57.597Z,3.20
2023-05-22T21:10:24.433Z,3.70
2023-05-22T21:12:52.995Z,3.90
2023-05-22T21:15:25.409Z,3.90
2023-05-22T21:17:52.317Z,4.00
2023-05-22T21:20:22.837Z,3.90
2023-05-22T21:22:51.219Z,4.10
2023-05-22T21:25:18.256Z,3.90
2023-05-22T21:27:48.391Z,3.70
2023-05-22T21:30:15.780Z,4.10
2023-05-22T21:32:43.024Z,4.10
2023-05-22T21:35:10.504Z,3.70
2023-05-22T21:37:37.615Z,4.30
2023-05-22T21:40:05.751Z,4.40
2023-05-22T21:42:52.799Z,4.00
2023-05-22T21:58:44.611Z,4.20
2023-05-22T22:01:44.130Z,4.00
2023-05-22T22:04:11.282Z,4.40
2023-05-22T22:06:38.316Z,3.90
2023-05-22T22:09:05.154Z,4.00
2023-05-22T22:11:32.322Z,4.30
2023-05-22T22:14:01.442Z,4.60
2023-05-22T22:16:29.155Z,4.50
2023-05-22T22:18:57.480Z,4.40
2023-05-22T22:21:24.928Z,4.40
2023-05-22T22:24:06.696Z,4.70
2023-05-22T22:26:35.089Z,4.70
2023-05-22T22:29:07.406Z,4.60
2023-05-22T22:31:35.213Z,3.90
2023-05-22T22:34:05.536Z,5.00
2023-05-22T22:36:34.899Z,4.90
2023-05-22T22:39:01.722Z,4.20
2023-05-22T22:41:28.604Z,4.80
2023-05-22T22:43:55.445Z,4.40
2023-05-22T22:46:22.273Z,4.50
2023-05-22T22:48:50.506Z,4.30
2023-05-22T22:51:17.992Z,4.70
2023-05-22T22:53:44.782Z,4.40
2023-05-22T22:56:11.826Z,4.30
2023-05-22T22:58:40.270Z,4.60
2023-05-22T23:01:09.796Z,4.10
2023-05-22T23:03:36.611Z,4.60
2023-05-22T23:06:03.718Z,4.50
2023-05-22T23:08:30.554Z,4.90
2023-05-22T23:10:57.944Z,4.50
2023-05-22T23:13:24.894Z,4.30
2023-05-22T23:15:52.148Z,4.70
2023-05-22T23:18:19.145Z,5.10
2023-05-22T23:20:46.227Z,4.70
2023-05-22T23:23:14.015Z,4.40
2023-05-22T23:25:41.529Z,4.70
2023-05-22T23:28:09.028Z,4.40
2023-05-22T23:30:37.035Z,5.00
2023-05-22T23:33:07.096Z,4.40
2023-05-22T23:35:34.275Z,4.80
2023-05-22T23:38:02.404Z,4.50
2023-05-22T23:40:29.970Z,4.70
2023-05-22T23:42:57.065Z,4.90
2023-05-22T23:45:23.955Z,4.80
2023-05-22T23:47:51.710Z,4.70
2023-05-22T23:50:18.973Z,4.60
2023-05-22T23:52:47.516Z,4.20
2023-05-22T23:55:14.329Z,4.50
2023-05-22T23:57:41.528Z,4.80
